sensor_id;sensor_type;location;lat;lon;timestamp;P1;durP1;ratioP1;P2;durP2;ratioP2
55150;SDS011;41041;43.162;20.538;2024-02-15T14:42:34;4.18;;;2.10;;
55150;SDS011;41041;43.162;20.538;2024-02-15T14:45:01;4.35;;;2.10;;
55150;SDS011;41041;43.162;20.538;2024-02-15T14:47:27;3.65;;;2.00;;
55150;SDS011;41041;43.162;20.538;2024-02-15T14:49:53;4.88;;;2.00;;
55150;SDS011;41041;43.162;20.538;2024-02-15T14:52:21;4.18;;;2.92;;
55150;SDS011;41041;43.162;20.538;2024-02-15T14:54:47;4.97;;;2.50;;
55150;SDS011;41041;43.162;20.538;2024-02-15T14:57:14;8.40;;;4.47;;
55150;SDS011;41041;43.162;20.538;2024-02-15T14:59:41;5.40;;;2.40;;
55150;SDS011;41041;43.162;20.538;2024-02-15T15:02:07;7.85;;;2.28;;
55150;SDS011;41041;43.162;20.538;2024-02-15T15:04:36;6.40;;;2.55;;
55150;SDS011;41041;43.162;20.538;2024-02-15T15:07:22;5.65;;;2.67;;
55150;SDS011;41041;43.162;20.538;2024-02-15T15:10:17;6.18;;;2.47;;
55150;SDS011;41041;43.162;20.538;2024-02-15T15:13:02;4.80;;;2.13;;
55150;SDS011;41041;43.162;20.538;2024-02-15T15:15:29;4.43;;;2.60;;
55150;SDS011;41041;43.162;20.538;2024-02-15T15:20:59;5.75;;;2.40;;
55150;SDS011;41041;43.162;20.538;2024-02-15T15:23:26;5.78;;;2.30;;
55150;SDS011;41041;43.162;20.538;2024-02-15T15:25:56;5.53;;;2.50;;
55150;SDS011;41041;43.162;20.538;2024-02-15T15:28:23;10.82;;;2.50;;
55150;SDS011;41041;43.162;20.538;2024-02-15T15:30:49;6.88;;;2.42;;
55150;SDS011;41041;43.162;20.538;2024-02-15T15:33:16;7.57;;;2.60;;
55150;SDS011;41041;43.162;20.538;2024-02-15T15:35:45;5.22;;;2.40;;
55150;SDS011;41041;43.162;20.538;2024-02-15T15:38:12;5.63;;;2.78;;
55150;SDS011;41041;43.162;20.538;2024-02-15T15:40:38;6.32;;;2.50;;
55150;SDS011;41041;43.162;20.538;2024-02-15T15:43:04;5.57;;;2.40;;
55150;SDS011;41041;43.162;20.538;2024-02-15T15:45:32;6.75;;;2.58;;
55150;SDS011;41041;43.162;20.538;2024-02-15T15:47:58;5.15;;;2.42;;
55150;SDS011;41041;43.162;20.538;2024-02-15T15:50:31;4.85;;;2.58;;
55150;SDS011;41041;43.162;20.538;2024-02-15T15:53:08;8.65;;;5.03;;
55150;SDS011;41041;43.162;20.538;2024-02-15T15:55:36;5.22;;;3.15;;
55150;SDS011;41041;43.162;20.538;2024-02-15T15:58:06;8.82;;;3.83;;
55150;SDS011;41041;43.162;20.538;2024-02-15T16:00:52;5.43;;;2.65;;
55150;SDS011;41041;43.162;20.538;2024-02-15T16:16:49;9.50;;;3.75;;
55150;SDS011;41041;43.162;20.538;2024-02-15T16:19:15;25.65;;;14.40;;
55150;SDS011;41041;43.162;20.538;2024-02-15T16:21:41;10.68;;;5.30;;
55150;SDS011;41041;43.162;20.538;2024-02-15T16:24:07;7.32;;;3.70;;
55150;SDS011;41041;43.162;20.538;2024-02-15T16:26:34;8.30;;;4.00;;
55150;SDS011;41041;43.162;20.538;2024-02-15T16:29:01;11.65;;;5.13;;
55150;SDS011;41041;43.162;20.538;2024-02-15T16:34:04;12.15;;;7.05;;
55150;SDS011;41041;43.162;20.538;2024-02-15T16:36:42;12.82;;;6.22;;
55150;SDS011;41041;43.162;20.538;2024-02-15T16:39:11;11.82;;;5.57;;
55150;SDS011;41041;43.162;20.538;2024-02-15T17:34:37;33.28;;;16.58;;
55150;SDS011;41041;43.162;20.538;2024-02-15T17:37:03;54.88;;;26.33;;
55150;SDS011;41041;43.162;20.538;2024-02-15T17:39:30;47.10;;;22.65;;
